Archival Weather

Norman Y Mineta San Jose Intl

San Jose, California (KSJC)

Report from: Saturday, September 30, 2023 10:53 AM PDT
Current time: Thursday, July 18, 2024 7:58 PM PDT

Current weather – Weather history – Daily summaries
Weather forecast

Temperature16.7°C (62.1°F)
Dew point11.1°C (52.0°F)
Winds Calm
Visibility10 mi. (16.1 km)
Clouds Few clouds 700 ft. (213 m)
Ceiling: Broken clouds 2,400 ft. (732 m)
Overcast 3,000 ft. (914 m)
Altimeter29.82 in.Hg (1010 mB)
Relative humidity70 %
Density altitude510 ft. (155 m)
Sea-level pressure101.0 kPa (1010 mB, 29.81 in.Hg)
Max temp last 6 hours17.2°C (63.0°F)
Min temp last 6 hours15.6°C (60.1°F)
Remarks Automated weather observing station with precipitation discriminator
Pressure rising more slowly
Flight conditions Marginal Visual Meteorological Conditions
Raw dataKSJC 301753Z 00000KT 10SM FEW007 BKN024 OVC030 17/11 A2982 RMK AO2 SLP096 T01670111 10172 20156 51006
An error has occurred. This application may no longer respond until reloaded. Reload 🗙